Time;durP1;ratioP1;P1;durP2;ratioP2;P2;SDS_P1;SDS_P2;PMS_P1;PMS_P2;Temp;Humidity;BMP_temperature;BMP_pressure;BME280_temperature;BME280_humidity;BME280_pressure;Samples;Min_cycle;Max_cycle;Signal;HPM_P1;HPM_P2
2023/06/23 00:01:58;;;;;;;6.30;4.85;;;18.10;99.90;;;;;;5087254;28;20401;-90
2023/06/23 00:04:24;;;;;;;6.47;4.50;;;18.00;99.90;;;;;;5088083;28;20439;-91
2023/06/23 00:06:50;;;;;;;4.50;4.10;;;18.10;99.90;;;;;;5083738;28;20035;-90
2023/06/23 00:09:17;;;;;;;4.75;4.32;;;18.10;99.90;;;;;;5092042;28;20035;-90
2023/06/23 00:11:43;;;;;;;4.32;3.97;;;18.10;99.90;;;;;;5083635;28;20393;-91
2023/06/23 00:14:10;;;;;;;5.00;4.50;;;18.10;99.90;;;;;;5080421;28;20095;-90
2023/06/23 00:16:36;;;;;;;5.38;4.53;;;18.10;99.90;;;;;;5083229;28;20413;-91
2023/06/23 00:19:03;;;;;;;5.90;5.30;;;18.10;99.90;;;;;;5084753;28;20031;-87
2023/06/23 00:21:28;;;;;;;11.10;5.68;;;18.10;99.90;;;;;;5090237;28;20036;-90
2023/06/23 00:23:55;;;;;;;5.43;4.88;;;18.10;99.90;;;;;;5092585;28;20028;-90
2023/06/23 00:26:23;;;;;;;8.77;4.80;;;18.10;99.90;;;;;;5090242;28;20378;-91
2023/06/23 00:28:49;;;;;;;5.35;4.85;;;18.00;99.90;;;;;;5082735;28;20482;-91
2023/06/23 00:31:15;;;;;;;4.07;3.67;;;18.00;99.90;;;;;;5077852;28;20035;-90
2023/06/23 00:33:40;;;;;;;7.35;4.82;;;18.00;99.90;;;;;;5047705;28;20111;-90
2023/06/23 00:36:06;;;;;;;6.68;5.22;;;18.00;99.90;;;;;;5090532;28;20024;-86
2023/06/23 00:38:33;;;;;;;9.85;5.30;;;18.00;99.90;;;;;;5090977;28;20488;-90
2023/06/23 00:40:59;;;;;;;4.80;4.20;;;18.00;99.90;;;;;;5088345;28;20035;-90
2023/06/23 00:43:25;;;;;;;5.18;4.60;;;18.00;99.90;;;;;;5087882;28;20032;-90
2023/06/23 00:45:51;;;;;;;5.45;4.57;;;18.10;99.90;;;;;;5092601;28;20032;-90
2023/06/23 00:48:17;;;;;;;7.65;5.60;;;18.10;99.90;;;;;;5087562;28;20024;-86
2023/06/23 00:50:43;;;;;;;24.83;8.45;;;18.00;99.90;;;;;;5082787;28;20081;-90
2023/06/23 00:53:09;;;;;;;9.13;7.22;;;18.00;99.90;;;;;;5084326;28;20024;-90
2023/06/23 00:55:37;;;;;;;9.93;6.78;;;18.00;99.90;;;;;;5088323;28;20044;-89
2023/06/23 00:58:03;;;;;;;7.07;6.40;;;18.00;99.90;;;;;;5093307;28;20024;-86
2023/06/23 01:00:29;;;;;;;12.20;6.38;;;18.00;99.90;;;;;;5083477;28;20054;-90
2023/06/23 01:02:59;;;;;;;7.15;6.13;;;18.00;99.90;;;;;;5085147;28;20044;-91
2023/06/23 01:05:37;;;;;;;8.23;6.82;;;18.00;99.90;;;;;;5086910;28;20048;-89
2023/06/23 01:08:08;;;;;;;9.30;6.95;;;17.90;99.90;;;;;;5093699;28;20119;-90
2023/06/23 01:10:45;;;;;;;9.85;5.45;;;18.00;99.90;;;;;;5084279;28;20115;-89
2023/06/23 01:13:21;;;;;;;8.02;5.80;;;18.00;99.90;;;;;;5091657;28;20107;-89
2023/06/23 01:16:11;;;;;;;6.95;5.07;;;18.00;99.90;;;;;;5083275;28;20025;-88
2023/06/23 01:18:51;;;;;;;7.90;4.97;;;18.00;99.90;;;;;;5086707;28;20050;-90
2023/06/23 01:21:26;;;;;;;7.38;5.47;;;18.00;99.90;;;;;;5091080;28;20031;-88
2023/06/23 01:24:12;;;;;;;6.35;5.22;;;18.00;99.90;;;;;;5082817;28;20024;-91
2023/06/23 01:26:46;;;;;;;;;;;18.00;99.90;;;;;;5088902;28;20131;-90
2023/06/23 01:29:29;;;;;;;9.70;6.25;;;18.00;99.90;;;;;;5086381;28;19908;-91
2023/06/23 01:32:10;;;;;;;9.40;6.22;;;18.00;99.90;;;;;;5087277;28;20032;-89
2023/06/23 01:34:40;;;;;;;7.93;7.00;;;18.00;99.90;;;;;;5088050;28;20021;-91
2023/06/23 01:37:10;;;;;;;9.73;6.35;;;18.00;99.90;;;;;;5082027;28;20606;-90
2023/06/23 01:39:41;;;;;;;11.07;8.75;;;17.90;99.90;;;;;;5086086;28;20032;-90
2023/06/23 01:42:10;;;;;;;10.27;6.35;;;18.00;99.90;;;;;;5089248;28;20068;-89
2023/06/23 01:44:38;;;;;;;7.97;5.93;;;18.00;99.90;;;;;;5088991;28;20568;-88
2023/06/23 01:47:13;;;;;;;9.35;6.72;;;18.00;99.90;;;;;;5090562;28;20038;-87
2023/06/23 01:49:39;;;;;;;13.52;7.20;;;18.00;99.90;;;;;;5084768;28;20472;-89
2023/06/23 01:52:07;;;;;;;10.57;7.60;;;18.00;99.90;;;;;;5082074;28;20036;-89
2023/06/23 01:54:37;;;;;;;15.27;10.93;;;18.10;99.90;;;;;;5082908;28;20024;-88
2023/06/23 01:57:04;;;;;;;20.42;12.98;;;18.10;99.90;;;;;;5081195;28;20029;-89
2023/06/23 01:59:31;;;;;;;21.85;14.18;;;18.20;99.90;;;;;;5084416;28;20354;-86
2023/06/23 02:01:58;;;;;;;18.05;11.98;;;18.10;99.90;;;;;;5078443;28;20043;-89
2023/06/23 02:04:24;;;;;;;19.90;12.70;;;18.20;99.90;;;;;;5081355;28;20410;-89
2023/06/23 02:06:51;;;;;;;17.55;12.68;;;18.20;99.90;;;;;;5088124;28;20032;-90
2023/06/23 02:09:27;;;;;;;16.55;11.68;;;18.20;99.90;;;;;;5085290;28;20040;-86
2023/06/23 02:11:53;;;;;;;;;;;18.20;99.90;;;;;;5083087;28;20177;-89
2023/06/23 02:14:20;;;;;;;17.52;13.80;;;18.30;99.90;;;;;;5082685;28;19908;-87
2023/06/23 02:16:47;;;;;;;18.88;12.63;;;18.30;99.90;;;;;;5079188;28;20073;-87
2023/06/23 02:19:15;;;;;;;18.75;14.40;;;18.30;99.90;;;;;;5088028;28;20028;-89
2023/06/23 02:21:43;;;;;;;22.00;16.27;;;18.30;99.90;;;;;;5079420;28;20036;-90
2023/06/23 02:24:09;;;;;;;16.45;12.52;;;18.30;99.90;;;;;;5088228;28;20050;-89
2023/06/23 02:26:37;;;;;;;27.88;18.77;;;18.30;99.90;;;;;;5081110;28;20057;-90
2023/06/23 02:29:05;;;;;;;20.80;14.60;;;18.40;99.90;;;;;;5087609;28;20028;-86
2023/06/23 02:31:30;;;;;;;30.85;22.15;;;18.30;99.90;;;;;;5090334;28;20032;-86
2023/06/23 02:33:56;;;;;;;27.90;18.65;;;18.40;99.90;;;;;;5083319;28;20055;-89
2023/06/23 02:36:25;;;;;;;20.17;14.93;;;18.40;99.90;;;;;;5088497;28;20031;-90
2023/06/23 02:38:54;;;;;;;29.63;20.17;;;18.40;99.90;;;;;;5080085;28;20478;-89
2023/06/23 02:41:22;;;;;;;22.13;17.95;;;18.40;99.90;;;;;;5081918;28;20028;-89
2023/06/23 02:43:51;;;;;;;17.92;14.50;;;18.40;99.90;;;;;;5081344;28;20030;-88
2023/06/23 02:46:20;;;;;;;19.00;13.23;;;18.40;99.90;;;;;;5089988;28;20027;-87
2023/06/23 02:48:49;;;;;;;15.85;12.85;;;18.40;99.90;;;;;;5078867;28;20024;-87
2023/06/23 02:51:21;;;;;;;21.45;12.23;;;18.40;99.90;;;;;;5088767;28;20043;-89
2023/06/23 02:53:54;;;;;;;22.23;15.00;;;18.40;99.90;;;;;;5079311;28;20054;-86
2023/06/23 02:56:25;;;;;;;14.95;11.45;;;18.40;99.90;;;;;;5091342;28;20036;-90
2023/06/23 02:58:56;;;;;;;18.40;10.70;;;18.40;99.90;;;;;;5086548;28;20394;-90
2023/06/23 03:01:22;;;;;;;16.13;12.85;;;18.40;99.90;;;;;;5087516;28;20024;-90
2023/06/23 03:03:49;;;;;;;14.85;11.02;;;18.40;99.90;;;;;;5067518;28;20024;-86
2023/06/23 03:06:19;;;;;;;16.90;9.30;;;18.40;99.90;;;;;;5085616;28;20493;-90
2023/06/23 03:08:47;;;;;;;15.20;11.73;;;18.40;99.90;;;;;;5090460;28;20028;-89
2023/06/23 03:11:18;;;;;;;14.48;10.40;;;18.40;99.90;;;;;;5073131;28;20542;-89
2023/06/23 03:13:44;;;;;;;28.80;18.52;;;18.50;99.90;;;;;;5086808;28;20028;-89
2023/06/23 03:16:36;;;;;;;31.10;17.63;;;18.40;99.90;;;;;;5084405;28;20032;-91
2023/06/23 03:19:21;;;;;;;16.98;13.02;;;18.40;99.90;;;;;;5087038;28;20032;-87
2023/06/23 03:21:57;;;;;;;28.80;16.52;;;18.40;99.90;;;;;;5087860;28;20031;-86
2023/06/23 03:24:25;;;;;;;13.93;11.82;;;18.50;99.90;;;;;;5088154;28;20028;-90
2023/06/23 03:26:57;;;;;;;11.60;10.07;;;18.40;99.90;;;;;;5088315;28;20028;-91
2023/06/23 03:29:25;;;;;;;23.83;17.00;;;18.40;99.90;;;;;;5078786;28;20463;-90
2023/06/23 03:31:55;;;;;;;33.38;16.88;;;18.40;99.90;;;;;;5082885;28;20081;-90
2023/06/23 03:34:22;;;;;;;27.67;18.77;;;18.40;99.90;;;;;;5082849;28;20085;-91
2023/06/23 03:36:50;;;;;;;19.88;15.20;;;18.40;99.90;;;;;;5089126;28;20033;-89
2023/06/23 03:39:22;;;;;;;19.58;13.23;;;18.40;99.90;;;;;;5083891;28;20107;-90
2023/06/23 03:41:49;;;;;;;19.17;13.43;;;18.40;99.90;;;;;;5066514;28;20405;-90
2023/06/23 03:44:26;;;;;;;15.23;10.88;;;18.40;99.90;;;;;;5088905;28;20028;-90
2023/06/23 03:47:03;;;;;;;25.30;15.85;;;18.40;99.90;;;;;;5087377;28;20033;-88
2023/06/23 03:49:35;;;;;;;15.32;12.65;;;18.40;99.90;;;;;;5084342;28;20071;-90
2023/06/23 03:52:03;;;;;;;15.93;10.13;;;18.50;99.90;;;;;;5080865;28;20388;-89
2023/06/23 03:54:30;;;;;;;23.15;15.25;;;18.40;99.90;;;;;;5086323;28;20112;-86
2023/06/23 03:56:56;;;;;;;16.80;12.70;;;18.50;99.90;;;;;;5073804;28;20078;-89
2023/06/23 03:59:26;;;;;;;16.25;12.77;;;18.50;99.90;;;;;;5090387;28;20028;-89
2023/06/23 04:01:55;;;;;;;14.23;10.82;;;18.50;99.90;;;;;;5090288;28;20143;-89
2023/06/23 04:04:22;;;;;;;34.78;21.67;;;18.50;99.90;;;;;;5087969;28;20696;-89
2023/06/23 04:06:48;;;;;;;23.48;17.55;;;18.50;99.90;;;;;;5087535;28;20028;-89
2023/06/23 04:09:17;;;;;;;27.95;17.23;;;18.60;99.90;;;;;;5088694;28;20028;-89
2023/06/23 04:11:45;;;;;;;20.40;14.43;;;18.50;99.90;;;;;;5053459;22;20477;-88
2023/06/23 04:14:13;;;;;;;20.90;16.65;;;18.60;99.90;;;;;;5068253;28;20115;-87
2023/06/23 04:16:42;;;;;;;23.08;16.83;;;18.60;99.90;;;;;;5069507;28;20052;-88
2023/06/23 04:19:12;;;;;;;20.85;15.63;;;18.60;99.90;;;;;;5068309;28;20392;-89
2023/06/23 04:22:14;;;;;;;37.40;26.35;;;18.60;99.90;;;;;;5067652;28;20044;-90
2023/06/23 04:24:41;;;;;;;30.90;22.45;;;18.70;99.90;;;;;;5047217;28;20484;-89
2023/06/23 04:27:10;;;;;;;22.50;18.33;;;18.70;99.90;;;;;;5066612;28;20205;-89
2023/06/23 04:29:41;;;;;;;28.20;21.33;;;18.70;99.90;;;;;;5070870;28;20040;-89
2023/06/23 04:32:08;;;;;;;48.90;33.83;;;18.70;99.90;;;;;;5067771;28;20036;-87
2023/06/23 04:34:33;;;;;;;72.97;34.78;;;18.70;99.90;;;;;;5069420;28;20051;-91
2023/06/23 04:37:11;;;;;;;53.90;32.97;;;18.80;99.90;;;;;;5069737;28;20021;-92
2023/06/23 04:39:51;;;;;;;52.20;33.55;;;18.80;99.90;;;;;;5070888;28;20034;-90
2023/06/23 04:42:23;;;;;;;44.85;32.92;;;18.80;99.90;;;;;;5064401;28;20084;-89
2023/06/23 04:44:53;;;;;;;41.88;31.08;;;19.00;99.90;;;;;;5067019;28;20420;-90
2023/06/23 04:47:22;;;;;;;36.85;28.38;;;18.90;99.90;;;;;;4997365;28;20026;-90
2023/06/23 04:49:55;;;;;;;38.65;28.35;;;18.90;99.90;;;;;;4967734;28;20022;-90
2023/06/23 04:52:22;;;;;;;49.22;31.98;;;18.90;99.90;;;;;;4982793;28;20454;-90
2023/06/23 04:54:51;;;;;;;48.38;28.60;;;18.90;99.90;;;;;;4995470;28;20109;-90
2023/06/23 04:57:21;;;;;;;44.42;29.77;;;18.80;99.90;;;;;;4981982;28;20080;-89
2023/06/23 04:59:52;;;;;;;54.22;30.98;;;18.90;99.90;;;;;;5008842;28;20045;-89
2023/06/23 05:02:19;;;;;;;50.33;33.50;;;18.80;99.90;;;;;;4976237;28;20046;-89
2023/06/23 05:04:47;;;;;;;41.38;32.65;;;18.80;99.90;;;;;;4981294;28;20620;-90
2023/06/23 05:07:14;;;;;;;51.63;34.30;;;18.80;99.90;;;;;;4978401;28;20035;-90
2023/06/23 05:09:42;;;;;;;51.95;33.35;;;18.80;99.90;;;;;;4982339;28;20057;-90
2023/06/23 05:12:10;;;;;;;46.75;30.23;;;18.80;99.90;;;;;;4979160;28;20482;-89
2023/06/23 05:14:38;;;;;;;37.88;26.17;;;18.80;99.90;;;;;;4980535;28;20496;-90
2023/06/23 05:17:06;;;;;;;50.83;31.30;;;18.70;99.90;;;;;;4983799;28;20038;-90
2023/06/23 05:19:36;;;;;;;42.75;31.63;;;18.80;99.90;;;;;;4982532;28;20113;-90
2023/06/23 05:22:08;;;;;;;48.92;33.08;;;18.80;99.90;;;;;;4968242;28;20043;-89
2023/06/23 05:27:57;;;;;;;46.60;31.55;;;18.80;99.90;;;;;;4982320;28;20042;-90
2023/06/23 05:30:23;;;;;;;49.33;33.65;;;18.70;99.90;;;;;;4978239;28;20031;-89
2023/06/23 05:32:52;;;;;;;41.67;31.17;;;18.80;99.90;;;;;;4983006;28;20031;-90
2023/06/23 05:35:19;;;;;;;46.85;31.90;;;18.80;99.90;;;;;;4977006;28;20027;-90
2023/06/23 05:37:46;;;;;;;39.22;26.25;;;18.80;99.90;;;;;;4977807;28;20117;-90
2023/06/23 05:40:14;;;;;;;51.90;34.38;;;18.80;99.90;;;;;;4982049;28;20031;-90
2023/06/23 05:42:40;;;;;;;52.30;30.20;;;18.80;99.90;;;;;;4984043;28;20038;-90
2023/06/23 05:45:06;;;;;;;21.00;15.48;;;18.80;99.90;;;;;;4982578;28;20042;-89
2023/06/23 05:47:55;;;;;;;22.42;13.02;;;18.80;99.90;;;;;;4986517;28;20479;-90
2023/06/23 05:50:26;;;;;;;16.65;12.45;;;18.80;99.90;;;;;;4982193;28;20026;-90
2023/06/23 05:53:03;;;;;;;12.77;10.07;;;18.80;99.90;;;;;;4983523;28;20026;-89
2023/06/23 05:55:31;;;;;;;17.85;10.60;;;18.70;99.90;;;;;;4988727;28;20030;-90
2023/06/23 05:58:02;;;;;;;14.18;9.90;;;18.70;99.90;;;;;;4985575;28;20036;-90
2023/06/23 06:00:38;;;;;;;10.27;9.27;;;18.70;99.90;;;;;;4984968;28;20067;-90
2023/06/23 06:03:07;;;;;;;12.45;9.05;;;18.70;99.90;;;;;;4979725;28;20057;-90
2023/06/23 06:05:34;;;;;;;11.75;7.43;;;18.70;99.90;;;;;;4978462;28;20109;-90
2023/06/23 06:08:01;;;;;;;9.13;6.43;;;18.60;99.90;;;;;;4973021;28;20037;-89
2023/06/23 06:10:28;;;;;;;5.45;4.28;;;18.70;99.90;;;;;;4980872;28;20039;-91
2023/06/23 06:12:55;;;;;;;7.88;4.40;;;18.70;99.90;;;;;;4966592;28;20050;-90
2023/06/23 06:15:22;;;;;;;5.38;3.67;;;18.60;99.90;;;;;;4980245;28;20072;-90
2023/06/23 06:17:49;;;;;;;3.72;3.42;;;18.60;99.90;;;;;;4981806;28;20052;-90
2023/06/23 06:20:17;;;;;;;4.45;4.00;;;18.60;99.90;;;;;;4984548;28;20097;-92
2023/06/23 06:22:45;;;;;;;4.53;4.10;;;18.60;99.90;;;;;;4983834;28;20046;-91
2023/06/23 06:25:12;;;;;;;8.13;5.40;;;18.60;99.90;;;;;;4969158;28;20524;-91
2023/06/23 06:27:41;;;;;;;11.35;6.15;;;18.60;99.90;;;;;;4983196;28;20031;-91
2023/06/23 06:30:07;;;;;;;9.02;6.72;;;18.70;99.90;;;;;;4982115;28;20030;-91
2023/06/23 06:32:37;;;;;;;16.70;6.85;;;18.70;99.90;;;;;;4983758;28;20034;-91
2023/06/23 06:35:06;;;;;;;10.15;6.15;;;18.70;99.90;;;;;;4984431;28;20112;-91
2023/06/23 06:37:47;;;;;;;9.32;6.72;;;18.70;99.90;;;;;;4984088;28;20073;-91
2023/06/23 06:40:14;;;;;;;13.00;6.88;;;18.80;99.90;;;;;;4979062;28;20031;-91
2023/06/23 06:42:40;;;;;;;9.45;5.95;;;18.80;99.90;;;;;;4981340;28;20054;-90
2023/06/23 06:45:06;;;;;;;11.05;7.10;;;18.80;99.90;;;;;;4973374;28;20584;-91
2023/06/23 06:47:34;;;;;;;7.75;6.80;;;18.80;99.90;;;;;;4981271;28;20060;-90
2023/06/23 06:50:01;;;;;;;12.05;8.38;;;18.90;99.90;;;;;;4984909;28;20072;-91
2023/06/23 06:52:28;;;;;;;15.65;8.38;;;18.90;99.90;;;;;;4992345;28;20054;-90
2023/06/23 06:54:54;;;;;;;12.32;7.97;;;18.90;99.90;;;;;;4987247;28;20030;-90
2023/06/23 06:57:20;;;;;;;19.30;9.65;;;19.00;99.90;;;;;;4981023;28;20026;-91
2023/06/23 06:59:46;;;;;;;14.55;9.38;;;19.00;99.90;;;;;;4982658;28;20022;-91
2023/06/23 07:02:13;;;;;;;13.60;8.07;;;19.00;99.90;;;;;;4974870;28;20133;-88
2023/06/23 07:04:40;;;;;;;14.93;7.40;;;19.10;99.90;;;;;;4981467;28;20072;-90
2023/06/23 07:07:05;;;;;;;10.02;6.80;;;19.00;99.90;;;;;;4980313;28;20042;-90
2023/06/23 07:09:31;;;;;;;7.45;6.68;;;19.00;99.90;;;;;;4983785;28;20026;-90
2023/06/23 07:11:58;;;;;;;8.15;5.75;;;19.00;99.90;;;;;;4980816;28;20054;-91
2023/06/23 07:14:24;;;;;;;6.10;5.32;;;19.10;99.90;;;;;;4980061;28;20022;-90
2023/06/23 07:16:49;;;;;;;13.55;7.13;;;19.00;99.90;;;;;;4984259;28;20037;-90
2023/06/23 07:19:15;;;;;;;18.52;14.73;;;19.10;99.90;;;;;;4981280;28;20057;-89
2023/06/23 07:21:40;;;;;;;19.92;12.20;;;19.10;99.90;;;;;;4979450;28;20031;-90
2023/06/23 07:24:06;;;;;;;11.18;9.88;;;19.10;99.90;;;;;;4984550;28;20246;-90
2023/06/23 07:26:33;;;;;;;11.55;9.15;;;19.20;99.90;;;;;;4985529;28;20455;-92
2023/06/23 07:28:58;;;;;;;10.82;9.43;;;19.20;99.90;;;;;;4968964;28;20061;-91
2023/06/23 07:31:25;;;;;;;10.68;7.72;;;19.20;99.90;;;;;;4972073;28;20027;-91
2023/06/23 07:33:51;;;;;;;11.90;7.07;;;19.10;99.90;;;;;;4978658;28;20027;-89
2023/06/23 07:36:17;;;;;;;8.98;6.53;;;19.10;99.90;;;;;;4979106;28;20462;-92
2023/06/23 07:38:42;;;;;;;7.05;6.38;;;19.10;99.90;;;;;;4977840;28;20022;-91
2023/06/23 07:41:08;;;;;;;7.68;5.90;;;19.10;99.90;;;;;;4971855;28;20216;-89
2023/06/23 07:43:33;;;;;;;10.43;6.07;;;19.00;99.90;;;;;;5035199;28;20086;-91
2023/06/23 07:45:59;;;;;;;7.28;4.90;;;19.00;99.90;;;;;;4981994;28;20027;-91
2023/06/23 07:48:25;;;;;;;7.45;5.57;;;19.00;99.90;;;;;;4975454;28;20046;-88
2023/06/23 07:50:50;;;;;;;6.70;5.05;;;18.90;99.90;;;;;;4975460;28;20034;-90
2023/06/23 07:53:16;;;;;;;5.35;4.78;;;18.90;99.90;;;;;;4971721;28;20549;-92
2023/06/23 07:55:41;;;;;;;6.75;4.72;;;18.90;99.90;;;;;;4982200;28;20507;-91
2023/06/23 07:58:07;;;;;;;6.47;4.30;;;18.80;99.90;;;;;;4981379;28;20026;-89
2023/06/23 08:00:32;;;;;;;4.70;4.07;;;18.80;99.90;;;;;;4980710;28;20022;-90
2023/06/23 08:02:58;;;;;;;4.10;3.80;;;18.70;99.90;;;;;;4976154;28;20050;-92
2023/06/23 08:05:23;;;;;;;4.80;4.40;;;18.60;99.90;;;;;;4998225;28;20046;-92
2023/06/23 08:07:49;;;;;;;5.82;4.53;;;18.40;99.90;;;;;;5008764;28;20027;-91
2023/06/23 08:10:14;;;;;;;3.80;3.50;;;18.40;99.90;;;;;;4975619;28;20034;-92
2023/06/23 08:12:40;;;;;;;3.40;3.20;;;18.20;99.90;;;;;;4979396;28;20083;-92
2023/06/23 08:15:06;;;;;;;3.40;3.13;;;18.20;99.90;;;;;;4981946;28;20425;-91
2023/06/23 08:17:32;;;;;;;2.67;2.42;;;18.10;99.90;;;;;;4962282;28;20531;-92
2023/06/23 08:19:58;;;;;;;2.55;2.13;;;18.00;99.90;;;;;;4976552;28;20038;-92
2023/06/23 08:22:23;;;;;;;2.88;2.38;;;18.00;99.90;;;;;;4977900;28;20408;-94
2023/06/23 08:24:49;;;;;;;2.75;2.55;;;17.90;99.90;;;;;;4976598;28;20110;-93
2023/06/23 08:27:14;;;;;;;3.35;2.45;;;17.90;99.90;;;;;;4976192;28;20031;-90
2023/06/23 08:29:40;;;;;;;3.45;2.25;;;17.80;99.90;;;;;;4984317;28;20425;-91
2023/06/23 08:32:07;;;;;;;1.90;1.80;;;17.80;99.90;;;;;;4977621;28;20034;-93
2023/06/23 08:34:32;;;;;;;1.67;1.50;;;17.70;99.90;;;;;;4979855;28;20026;-90
2023/06/23 08:36:58;;;;;;;1.48;1.38;;;17.70;99.90;;;;;;4980851;28;20029;-91
2023/06/23 08:39:24;;;;;;;1.00;1.00;;;17.70;99.90;;;;;;4983387;28;20106;-91
2023/06/23 08:41:50;;;;;;;2.25;1.73;;;17.60;99.90;;;;;;4986939;28;20092;-91
2023/06/23 08:44:19;;;;;;;3.28;1.35;;;17.60;99.90;;;;;;4984253;28;20030;-92
2023/06/23 08:46:51;;;;;;;1.63;1.52;;;17.50;99.90;;;;;;4985476;28;20030;-90
2023/06/23 08:49:21;;;;;;;1.30;1.20;;;17.40;99.90;;;;;;4978329;28;20483;-93
2023/06/23 08:51:47;;;;;;;1.02;1.02;;;17.30;99.90;;;;;;4985959;28;20490;-89
2023/06/23 08:54:21;;;;;;;1.52;1.40;;;17.30;99.90;;;;;;4982318;28;20058;-92
2023/06/23 08:56:47;;;;;;;1.90;1.40;;;17.20;99.90;;;;;;4978780;28;20056;-92
2023/06/23 08:59:13;;;;;;;1.83;0.98;;;17.20;99.90;;;;;;4983854;28;20037;-91
2023/06/23 09:01:38;;;;;;;1.23;1.15;;;17.20;99.90;;;;;;4963583;28;20034;-89
2023/06/23 09:04:04;;;;;;;0.80;0.80;;;17.10;99.90;;;;;;4990856;28;20114;-90
2023/06/23 09:06:29;;;;;;;2.92;1.23;;;17.10;99.90;;;;;;5030547;28;20023;-92
2023/06/23 09:08:56;;;;;;;1.13;1.10;;;17.10;99.90;;;;;;4987174;28;20050;-91
2023/06/23 09:11:22;;;;;;;1.08;0.82;;;17.10;99.90;;;;;;5040763;28;20049;-89
2023/06/23 09:13:52;;;;;;;1.27;0.90;;;17.00;99.90;;;;;;4994361;28;20031;-92
2023/06/23 09:16:19;;;;;;;2.72;1.17;;;17.00;99.90;;;;;;5017095;28;20087;-88
2023/06/23 09:18:48;;;;;;;1.88;1.20;;;16.90;99.90;;;;;;5020202;28;20029;-89
2023/06/23 09:21:16;;;;;;;0.75;0.75;;;16.80;99.90;;;;;;5004016;28;20042;-86
2023/06/23 09:24:03;;;;;;;3.47;0.80;;;16.70;99.90;;;;;;5000013;28;20038;-91
2023/06/23 09:26:42;;;;;;;1.27;0.60;;;16.60;99.90;;;;;;4978122;28;20026;-86
2023/06/23 09:29:24;;;;;;;4.13;1.23;;;16.50;99.90;;;;;;4983845;28;20034;-93
2023/06/23 09:31:52;;;;;;;0.70;0.65;;;16.30;99.90;;;;;;4980293;28;20042;-91
2023/06/23 09:34:22;;;;;;;0.98;0.98;;;16.20;99.90;;;;;;4978791;28;20464;-89
2023/06/23 09:36:49;;;;;;;1.33;1.23;;;16.00;99.90;;;;;;4987816;28;20498;-92
2023/06/23 09:39:17;;;;;;;1.13;1.02;;;15.90;99.90;;;;;;4953223;28;20518;-92
2023/06/23 09:41:54;;;;;;;1.40;1.30;;;15.80;99.90;;;;;;5017337;28;20502;-89
2023/06/23 09:44:20;;;;;;;3.53;0.98;;;15.70;99.90;;;;;;4984682;28;20407;-89
2023/06/23 09:46:45;;;;;;;2.22;1.20;;;15.60;99.90;;;;;;5000241;28;20033;-93
2023/06/23 09:49:11;;;;;;;2.15;1.10;;;15.50;99.90;;;;;;4993360;28;20476;-90
2023/06/23 09:51:37;;;;;;;1.20;1.00;;;15.50;99.90;;;;;;4980688;28;20385;-88
2023/06/23 09:54:03;;;;;;;2.10;1.45;;;15.40;99.90;;;;;;4976719;28;20039;-90
2023/06/23 09:56:29;;;;;;;2.60;1.30;;;15.30;99.90;;;;;;4979512;28;20375;-91
2023/06/23 09:58:54;;;;;;;1.30;1.20;;;15.30;99.90;;;;;;5019506;28;20034;-89
2023/06/23 10:01:20;;;;;;;1.50;1.40;;;15.30;99.90;;;;;;4986271;28;20397;-86
2023/06/23 10:03:51;;;;;;;1.52;1.42;;;15.20;99.90;;;;;;4985525;28;20550;-89
2023/06/23 10:06:48;;;;;;;1.13;0.93;;;15.20;99.90;;;;;;4982436;28;20030;-90
2023/06/23 10:09:13;;;;;;;1.27;1.17;;;15.20;99.90;;;;;;4975489;28;20058;-93
2023/06/23 10:11:40;;;;;;;2.33;1.67;;;15.10;99.90;;;;;;4981963;28;20442;-93
2023/06/23 10:14:11;;;;;;;5.38;1.83;;;15.10;99.90;;;;;;4979320;28;20031;-93
2023/06/23 10:16:46;;;;;;;3.17;1.73;;;15.20;99.90;;;;;;4981792;28;20026;-89
2023/06/23 10:19:12;;;;;;;3.70;2.17;;;15.10;99.90;;;;;;4967778;28;20083;-91
2023/06/23 10:21:43;;;;;;;2.22;1.70;;;15.00;99.90;;;;;;4984672;28;20027;-91
2023/06/23 10:24:12;;;;;;;4.03;2.10;;;15.00;99.90;;;;;;4992159;28;20033;-94
2023/06/23 10:26:40;;;;;;;2.28;2.05;;;15.00;99.90;;;;;;4985876;28;20026;-90
2023/06/23 10:29:11;;;;;;;4.78;2.00;;;15.00;99.90;;;;;;4979444;28;20037;-88
2023/06/23 10:31:37;;;;;;;2.30;2.10;;;15.00;99.90;;;;;;4977484;28;20114;-90
2023/06/23 10:34:05;;;;;;;6.65;2.25;;;14.90;99.90;;;;;;4979928;28;20027;-89
2023/06/23 10:36:31;;;;;;;3.05;2.17;;;14.90;99.90;;;;;;4983232;28;20465;-90
2023/06/23 10:39:01;;;;;;;4.32;2.88;;;14.90;99.90;;;;;;4978122;28;20031;-92
2023/06/23 10:41:27;;;;;;;2.42;2.22;;;14.90;99.90;;;;;;4984366;28;20105;-88
2023/06/23 10:43:56;;;;;;;3.33;2.50;;;14.90;99.90;;;;;;4980370;28;20054;-91
2023/06/23 10:46:26;;;;;;;4.20;2.63;;;14.80;99.90;;;;;;4979149;28;20030;-91
2023/06/23 10:48:52;;;;;;;3.63;2.60;;;14.90;99.90;;;;;;4980933;28;20109;-92
2023/06/23 10:51:18;;;;;;;3.53;2.38;;;14.90;99.90;;;;;;4976142;28;20031;-93
2023/06/23 10:53:46;;;;;;;3.28;2.80;;;14.90;99.90;;;;;;4982705;28;20026;-90
2023/06/23 10:56:36;;;;;;;8.77;3.05;;;14.80;99.90;;;;;;4980538;28;20018;-90
2023/06/23 10:59:25;;;;;;;3.00;2.67;;;14.80;99.90;;;;;;4985572;28;20546;-89
2023/06/23 11:02:00;;;;;;;3.97;3.05;;;14.80;99.90;;;;;;5002521;28;20035;-88
2023/06/23 11:04:27;;;;;;;3.65;2.65;;;14.80;99.90;;;;;;4977406;28;20095;-89
2023/06/23 11:07:05;;;;;;;4.90;2.35;;;14.80;99.90;;;;;;4985758;28;20050;-90
2023/06/23 11:10:08;;;;;;;3.50;2.53;;;14.80;99.90;;;;;;4981053;28;20064;-90
2023/06/23 11:12:37;;;;;;;2.88;2.50;;;14.70;99.90;;;;;;4977969;28;20055;-88
2023/06/23 11:15:08;;;;;;;3.65;2.85;;;14.80;99.90;;;;;;4975025;28;20031;-91
2023/06/23 11:17:44;;;;;;;3.85;2.70;;;14.80;99.90;;;;;;4981553;28;20027;-88
2023/06/23 11:20:31;;;;;;;5.18;3.30;;;14.80;99.90;;;;;;4972708;28;20027;-93
2023/06/23 11:23:11;;;;;;;4.88;3.45;;;14.80;99.90;;;;;;4978071;28;20511;-88
2023/06/23 11:25:46;;;;;;;4.20;2.75;;;14.70;99.90;;;;;;4977510;28;20140;-91
2023/06/23 11:28:28;;;;;;;6.43;2.67;;;14.80;99.90;;;;;;4978816;28;20037;-88
2023/06/23 11:30:59;;;;;;;4.00;3.10;;;14.70;99.90;;;;;;4980234;28;20446;-93
2023/06/23 11:33:45;;;;;;;3.53;3.03;;;14.80;99.90;;;;;;4984571;28;20388;-91
2023/06/23 11:36:19;;;;;;;3.25;2.95;;;14.80;99.90;;;;;;4983678;28;20034;-90
2023/06/23 11:38:45;;;;;;;4.45;3.05;;;14.80;99.90;;;;;;4996734;28;20036;-90
2023/06/23 11:41:14;;;;;;;4.28;2.63;;;14.80;99.90;;;;;;4979928;28;20137;-89
2023/06/23 11:43:42;;;;;;;3.80;2.97;;;14.80;99.90;;;;;;4980103;28;20039;-87
2023/06/23 11:46:12;;;;;;;6.20;3.67;;;14.80;99.90;;;;;;4968389;28;20033;-93
2023/06/23 11:48:39;;;;;;;5.03;3.60;;;14.80;99.90;;;;;;4980630;28;20371;-90
2023/06/23 11:51:06;;;;;;;4.25;3.78;;;14.80;99.90;;;;;;4983055;28;20034;-88
2023/06/23 11:53:32;;;;;;;4.72;4.03;;;14.80;99.90;;;;;;4977383;28;20034;-88
2023/06/23 11:55:59;;;;;;;4.95;4.00;;;14.90;99.90;;;;;;4975222;28;20023;-89
2023/06/23 11:58:32;;;;;;;5.80;4.32;;;14.90;99.90;;;;;;4982106;28;20032;-88
2023/06/23 12:00:57;;;;;;;7.43;3.97;;;14.90;99.90;;;;;;4977634;28;20064;-89
2023/06/23 12:03:24;;;;;;;4.05;3.40;;;15.00;99.90;;;;;;4983999;28;20046;-90
2023/06/23 12:05:50;;;;;;;6.68;4.25;;;14.90;99.90;;;;;;4979543;28;20391;-85
2023/06/23 12:08:16;;;;;;;6.47;4.00;;;15.00;99.90;;;;;;4981932;28;20027;-88
2023/06/23 12:10:42;;;;;;;4.00;3.58;;;15.00;99.90;;;;;;4974645;28;20061;-88
2023/06/23 12:13:11;;;;;;;10.02;4.55;;;15.00;99.90;;;;;;4981431;28;20055;-92
2023/06/23 12:15:40;;;;;;;6.22;4.47;;;15.10;99.90;;;;;;4984135;28;20087;-87
2023/06/23 12:18:07;;;;;;;4.93;4.30;;;15.10;99.90;;;;;;4984124;28;20079;-86
2023/06/23 12:20:35;;;;;;;5.07;4.57;;;15.10;99.90;;;;;;4987142;28;20096;-89
2023/06/23 12:23:05;;;;;;;12.48;5.03;;;15.10;99.90;;;;;;4978532;28;20495;-90
2023/06/23 12:25:39;;;;;;;6.32;4.40;;;15.10;99.90;;;;;;4984037;28;20038;-88
2023/06/23 12:28:05;;;;;;;5.35;4.07;;;15.10;99.90;;;;;;4982029;28;20450;-89
2023/06/23 12:30:41;;;;;;;7.88;4.13;;;15.10;99.90;;;;;;4982186;28;20536;-88
2023/06/23 12:33:21;;;;;;;7.68;4.38;;;15.10;99.90;;;;;;4982510;28;20050;-89
2023/06/23 12:36:14;;;;;;;8.68;4.32;;;15.10;99.90;;;;;;4981961;28;20031;-89
2023/06/23 12:38:39;;;;;;;7.85;4.50;;;15.10;99.90;;;;;;4997824;28;20434;-90
2023/06/23 12:41:26;;;;;;;4.78;4.20;;;15.20;99.90;;;;;;4982934;28;20029;-89
2023/06/23 12:44:00;;;;;;;5.85;4.80;;;15.20;99.90;;;;;;4977566;28;20042;-90
2023/06/23 12:46:27;;;;;;;7.43;4.68;;;15.20;99.90;;;;;;4978499;28;20035;-90
2023/06/23 12:48:54;;;;;;;8.73;4.93;;;15.20;99.90;;;;;;4978112;28;20065;-92
2023/06/23 12:51:32;;;;;;;6.40;4.43;;;15.20;99.90;;;;;;4982669;28;20042;-91
2023/06/23 12:53:59;;;;;;;5.97;4.68;;;15.20;99.90;;;;;;4982815;28;20030;-91
2023/06/23 12:56:24;;;;;;;6.28;4.90;;;15.30;99.90;;;;;;4980719;28;20098;-89